createdAt,value
2023-03-23T15:59:23.275Z,10.00
2023-03-23T16:01:57.513Z,11.70
2023-03-23T16:04:31.412Z,11.20
2023-03-23T16:07:07.492Z,7.80
2023-03-23T16:09:42.694Z,9.40
2023-03-23T16:12:16.642Z,11.50
2023-03-23T16:14:50.432Z,11.20
2023-03-23T16:17:23.901Z,10.10
2023-03-23T16:19:57.511Z,12.80
2023-03-23T16:22:31.463Z,14.40
2023-03-23T16:25:05.912Z,8.50
2023-03-23T16:27:40.103Z,11.30
2023-03-23T16:30:21.325Z,9.50
2023-03-23T16:32:57.698Z,7.90
2023-03-23T16:35:31.882Z,10.50
2023-03-23T16:38:07.418Z,7.80
2023-03-23T16:40:43.736Z,9.00
2023-03-23T16:43:17.975Z,10.40
2023-03-23T16:45:52.061Z,9.50
2023-03-23T16:48:27.017Z,9.00
2023-03-23T16:51:01.179Z,9.20
2023-03-23T16:53:36.427Z,7.80
2023-03-23T16:56:10.829Z,11.30
2023-03-23T16:58:44.590Z,11.30
2023-03-23T17:01:18.169Z,11.40
2023-03-23T17:03:51.910Z,9.90
2023-03-23T17:06:26.355Z,11.10
2023-03-23T17:09:00.261Z,10.00
2023-03-23T17:11:33.943Z,9.80
2023-03-23T17:14:08.091Z,9.70
2023-03-23T17:16:42.888Z,10.10
2023-03-23T17:19:17.079Z,9.80
2023-03-23T17:21:51.946Z,10.10
2023-03-23T17:24:27.530Z,9.90
2023-03-23T17:27:02.031Z,13.00
2023-03-23T17:29:39.225Z,12.30
2023-03-23T17:32:16.074Z,9.50
2023-03-23T17:34:49.913Z,11.30
2023-03-23T17:37:26.212Z,12.00
2023-03-23T17:40:01.403Z,12.10
2023-03-23T17:42:35.753Z,14.60
2023-03-23T17:45:12.349Z,13.40
2023-03-23T17:47:57.896Z,11.40
2023-03-23T17:50:31.407Z,12.90
2023-03-23T17:53:06.844Z,12.70
2023-03-23T17:55:43.943Z,11.00
2023-03-23T17:58:19.702Z,11.40
2023-03-23T18:00:55.166Z,10.60
2023-03-23T18:03:34.982Z,11.20
2023-03-23T18:06:13.181Z,14.10
2023-03-23T18:08:48.564Z,12.80
2023-03-23T18:11:25.257Z,13.10
2023-03-23T18:14:04.384Z,15.90
2023-03-23T18:16:39.122Z,15.60
2023-03-23T18:19:16.188Z,14.20
2023-03-23T18:21:52.739Z,15.40
2023-03-23T18:24:27.987Z,16.20
2023-03-23T18:27:06.313Z,13.70
2023-03-23T18:29:47.499Z,13.80
2023-03-23T18:32:23.401Z,18.10
2023-03-23T18:35:13.249Z,18.60
2023-03-23T18:37:57.078Z,18.20
2023-03-23T18:40:34.022Z,13.80
2023-03-23T18:43:10.424Z,15.70
2023-03-23T18:45:50.096Z,17.40
2023-03-23T18:48:27.922Z,18.60
2023-03-23T18:51:04.273Z,17.50
2023-03-23T18:53:41.216Z,21.10
2023-03-23T18:56:23.956Z,18.60
2023-03-23T18:59:05.735Z,19.40
2023-03-23T19:01:42.325Z,20.80
2023-03-23T19:04:22.814Z,19.70
2023-03-23T19:07:02.513Z,18.80
2023-03-23T19:09:39.738Z,18.00
2023-03-23T19:12:18.672Z,16.10
2023-03-23T19:14:56.580Z,17.60
2023-03-23T19:17:38.798Z,17.90
2023-03-23T19:20:37.277Z,20.10
2023-03-23T19:23:17.087Z,13.70
2023-03-23T19:25:56.110Z,16.60
2023-03-23T19:29:15.449Z,14.30
2023-03-23T19:31:33.479Z,17.20
2023-03-23T19:34:13.793Z,14.00
2023-03-23T19:36:56.252Z,10.70
2023-03-23T19:39:51.630Z,11.50
2023-03-23T19:42:34.314Z,10.40
2023-03-23T19:45:15.958Z,10.60
2023-03-23T19:47:52.198Z,13.60
2023-03-23T19:50:29.798Z,11.90
2023-03-23T19:53:09.714Z,12.70
2023-03-23T19:55:47.369Z,11.00
2023-03-23T19:58:25.106Z,9.20
2023-03-23T20:01:08.669Z,8.80
2023-03-23T20:03:46.640Z,8.80
2023-03-23T20:06:28.919Z,8.40
2023-03-23T20:09:32.091Z,8.50
2023-03-23T20:12:11.456Z,7.60
2023-03-23T20:14:52.864Z,6.90
2023-03-23T20:17:30.674Z,5.90
2023-03-23T20:20:12.096Z,7.40
2023-03-23T20:22:50.731Z,5.90
2023-03-23T20:25:34.950Z,5.60
2023-03-23T20:28:12.045Z,7.70
2023-03-23T20:31:19.365Z,8.60
2023-03-23T20:33:47.192Z,7.50
2023-03-23T20:36:43.150Z,7.10
2023-03-23T20:39:21.611Z,6.70
2023-03-23T20:42:07.186Z,8.00
2023-03-23T20:44:45.805Z,8.30
2023-03-23T20:47:22.501Z,6.50
2023-03-23T20:49:59.825Z,7.30
2023-03-23T20:52:37.310Z,7.40
2023-03-23T20:55:13.992Z,6.80
2023-03-23T20:57:52.050Z,8.10
2023-03-23T21:00:29.239Z,7.70
2023-03-23T21:03:05.166Z,8.40
2023-03-23T21:05:45.468Z,8.40
2023-03-23T21:08:22.998Z,7.40
2023-03-23T21:10:59.230Z,7.80
2023-03-23T21:13:35.159Z,10.10
2023-03-23T21:16:11.621Z,6.80
2023-03-23T21:18:54.954Z,8.70
2023-03-23T21:21:30.243Z,10.70
2023-03-23T21:24:06.230Z,19.00
2023-03-23T21:26:41.957Z,8.10
2023-03-23T21:29:16.119Z,8.10
2023-03-23T21:31:57.777Z,11.10
2023-03-23T21:34:39.742Z,8.30
2023-03-23T21:37:15.391Z,6.60
2023-03-23T21:39:50.241Z,10.70
2023-03-23T21:42:30.381Z,8.20
2023-03-23T21:45:04.515Z,8.50
2023-03-23T21:47:38.647Z,8.20
2023-03-23T21:50:14.362Z,9.60
2023-03-23T21:52:51.451Z,8.10
2023-03-23T21:55:25.782Z,8.60
2023-03-23T21:57:59.510Z,8.60
2023-03-23T22:00:34.304Z,11.50
2023-03-23T22:03:08.866Z,10.80
2023-03-23T22:05:44.663Z,12.30
2023-03-23T22:08:18.556Z,10.30
2023-03-23T22:11:00.658Z,11.30
2023-03-23T22:13:37.423Z,11.50
2023-03-23T22:16:13.723Z,13.10
2023-03-23T22:18:48.622Z,14.00
2023-03-23T22:21:26.584Z,12.80
2023-03-23T22:24:02.219Z,14.40
2023-03-23T22:26:36.646Z,14.50
2023-03-23T22:29:11.535Z,12.40
2023-03-23T22:31:45.757Z,12.70
2023-03-23T22:34:19.676Z,13.90
2023-03-23T22:36:53.444Z,13.30
2023-03-23T22:39:26.760Z,13.00
2023-03-23T22:42:00.138Z,13.50
2023-03-23T22:44:34.170Z,13.50
2023-03-23T22:47:07.660Z,14.10
2023-03-23T22:49:41.416Z,12.60
2023-03-23T22:52:15.201Z,14.80
2023-03-23T22:54:49.093Z,16.60
2023-03-23T22:57:22.715Z,13.60
2023-03-23T22:59:56.293Z,13.30
2023-03-23T23:02:29.847Z,12.40
2023-03-23T23:05:03.820Z,12.30
2023-03-23T23:07:37.602Z,12.00
2023-03-23T23:10:12.186Z,12.00
2023-03-23T23:12:46.205Z,10.90
2023-03-23T23:15:20.018Z,11.20
2023-03-23T23:17:54.483Z,10.50
2023-03-23T23:20:28.315Z,11.80
2023-03-23T23:23:02.448Z,12.10
2023-03-23T23:25:36.832Z,12.00
2023-03-23T23:28:11.135Z,15.60
2023-03-23T23:30:45.620Z,14.60
2023-03-23T23:33:20.250Z,12.30
2023-03-23T23:35:54.597Z,11.30
2023-03-23T23:38:28.168Z,8.80
2023-03-23T23:41:01.682Z,10.60
2023-03-23T23:43:37.794Z,10.60
2023-03-23T23:46:11.432Z,11.00
2023-03-23T23:48:45.045Z,11.20
2023-03-23T23:51:18.808Z,12.00
2023-03-23T23:53:53.742Z,13.10
2023-03-23T23:56:28.339Z,12.00
2023-03-23T23:59:02.396Z,14.40
